Time;durP1;ratioP1;P1;durP2;ratioP2;P2;SDS_P1;SDS_P2;PMS_P1;PMS_P2;Temp;Humidity;BMP_temperature;BMP_pressure;BME280_temperature;BME280_humidity;BME280_pressure;Samples;Min_cycle;Max_cycle;Signal;HPM_P1;HPM_P2
2022/07/13 00:00:39;;;;;;;7.67;5.30;;;20.00;92.10;;;;;;5041562;28;21012;-79
2022/07/13 00:03:05;;;;;;;6.17;4.53;;;20.00;92.50;;;;;;5047674;28;20840;-80
2022/07/13 00:05:32;;;;;;;5.57;4.43;;;20.00;92.90;;;;;;5044716;28;20463;-80
2022/07/13 00:07:59;;;;;;;7.80;4.53;;;19.90;93.20;;;;;;5039966;28;20450;-80
2022/07/13 00:10:27;;;;;;;5.70;4.27;;;19.90;93.70;;;;;;5040518;28;20470;-81
2022/07/13 00:12:54;;;;;;;6.63;4.63;;;19.80;94.00;;;;;;5039541;28;20477;-81
2022/07/13 00:15:21;;;;;;;4.97;4.17;;;19.70;94.40;;;;;;5036561;28;20456;-80
2022/07/13 00:17:48;;;;;;;6.83;5.30;;;19.70;94.80;;;;;;5038460;28;20455;-80
2022/07/13 00:20:14;;;;;;;5.60;5.00;;;19.70;95.30;;;;;;5039159;28;20466;-79
2022/07/13 00:22:41;;;;;;;10.07;5.93;;;19.60;95.90;;;;;;5038712;28;20442;-81
2022/07/13 00:25:08;;;;;;;8.30;6.60;;;19.60;96.40;;;;;;5037701;28;20449;-81
2022/07/13 00:27:36;;;;;;;4.77;4.37;;;19.50;96.70;;;;;;5038139;28;20479;-81
2022/07/13 00:30:04;;;;;;;8.77;5.50;;;19.50;97.20;;;;;;5037459;28;20470;-81
2022/07/13 00:32:30;;;;;;;5.80;4.80;;;19.50;97.50;;;;;;5040546;28;20928;-80
2022/07/13 00:34:57;;;;;;;6.73;5.60;;;19.40;97.80;;;;;;5039765;28;20456;-81
2022/07/13 00:37:24;;;;;;;5.13;4.20;;;19.40;98.10;;;;;;5038235;28;20446;-81
2022/07/13 00:39:50;;;;;;;8.13;5.20;;;19.40;98.30;;;;;;5037542;28;21009;-80
2022/07/13 00:42:17;;;;;;;7.90;5.57;;;19.30;99.00;;;;;;5038940;28;20962;-80
2022/07/13 00:44:45;;;;;;;12.30;6.43;;;19.20;99.60;;;;;;5058113;28;20426;-79
2022/07/13 00:47:13;;;;;;;6.73;4.90;;;19.20;99.90;;;;;;5048241;28;20938;-81
2022/07/13 00:49:40;;;;;;;6.67;5.03;;;19.20;99.90;;;;;;5039847;28;20465;-81
2022/07/13 00:52:07;;;;;;;6.80;5.57;;;19.20;99.90;;;;;;5052029;28;20493;-80
2022/07/13 00:54:35;;;;;;;8.17;4.80;;;19.20;99.90;;;;;;5052478;28;20449;-79
2022/07/13 00:57:03;;;;;;;6.27;4.50;;;19.20;99.90;;;;;;5046567;28;20441;-80
2022/07/13 00:59:29;;;;;;;4.17;3.77;;;19.10;99.90;;;;;;5049171;28;20523;-80
2022/07/13 01:01:59;;;;;;;5.80;4.70;;;19.20;99.90;;;;;;5047199;28;20444;-81
2022/07/13 01:04:25;;;;;;;9.00;4.60;;;19.20;99.90;;;;;;5044147;28;20475;-81
2022/07/13 01:06:53;;;;;;;6.00;4.37;;;19.10;99.90;;;;;;5040634;28;20453;-81
2022/07/13 01:09:21;;;;;;;6.00;4.67;;;19.10;99.90;;;;;;5041425;28;20476;-81
2022/07/13 01:11:48;;;;;;;6.50;4.50;;;19.10;99.90;;;;;;5043211;28;20442;-81
2022/07/13 01:14:16;;;;;;;6.10;5.40;;;19.00;99.90;;;;;;5042590;28;20453;-81
2022/07/13 01:16:43;;;;;;;6.77;4.70;;;18.90;99.90;;;;;;5041308;28;20446;-80
2022/07/13 01:19:13;;;;;;;8.03;5.90;;;19.00;99.90;;;;;;5044691;28;20498;-80
2022/07/13 01:21:43;;;;;;;8.57;6.53;;;18.90;99.90;;;;;;5045011;28;20446;-80
2022/07/13 01:24:12;;;;;;;7.20;5.20;;;18.90;99.90;;;;;;5051152;28;20441;-80
2022/07/13 01:26:39;;;;;;;6.60;5.63;;;18.80;99.90;;;;;;5050930;28;20445;-80
2022/07/13 01:29:06;;;;;;;7.70;5.10;;;18.80;99.90;;;;;;5050793;28;20462;-79
2022/07/13 01:31:34;;;;;;;7.47;5.87;;;18.70;99.90;;;;;;5050108;28;20448;-80
2022/07/13 01:34:01;;;;;;;8.40;4.70;;;18.60;99.90;;;;;;5039359;28;20528;-81
2022/07/13 01:36:29;;;;;;;7.27;5.20;;;18.70;99.90;;;;;;5037575;28;20442;-80
2022/07/13 01:38:57;;;;;;;7.90;5.27;;;18.60;99.90;;;;;;5037179;28;20450;-81
2022/07/13 01:41:25;;;;;;;6.07;4.30;;;18.60;99.90;;;;;;5045786;28;20442;-80
2022/07/13 01:43:53;;;;;;;6.13;4.57;;;18.60;99.90;;;;;;5044534;28;20442;-81
2022/07/13 01:46:20;;;;;;;5.73;4.80;;;18.60;99.90;;;;;;5036644;28;20445;-81
2022/07/13 01:48:47;;;;;;;7.43;4.93;;;18.60;99.90;;;;;;5036484;28;20872;-81
2022/07/13 01:51:13;;;;;;;8.40;4.13;;;18.60;99.90;;;;;;5037472;28;20449;-81
2022/07/13 01:53:40;;;;;;;5.00;4.03;;;18.50;99.90;;;;;;5038485;28;20489;-81
2022/07/13 01:56:08;;;;;;;7.97;5.03;;;18.50;99.90;;;;;;5039494;28;20450;-81
2022/07/13 01:58:36;;;;;;;6.77;5.20;;;18.50;99.90;;;;;;5037958;28;20450;-81
2022/07/13 02:01:03;;;;;;;6.47;4.90;;;18.50;99.90;;;;;;5038393;28;20474;-81
2022/07/13 02:03:30;;;;;;;5.17;4.67;;;18.40;99.90;;;;;;5037656;28;20453;-81
2022/07/13 02:05:58;;;;;;;6.40;4.27;;;18.50;99.90;;;;;;5034679;28;21028;-80
2022/07/13 02:08:25;;;;;;;7.17;4.53;;;18.40;99.90;;;;;;5032081;28;20458;-82
2022/07/13 02:10:51;;;;;;;8.17;5.30;;;18.40;99.90;;;;;;5029021;28;20461;-80
2022/07/13 02:13:19;;;;;;;8.80;4.97;;;18.40;99.90;;;;;;5025193;28;20569;-81
2022/07/13 02:15:47;;;;;;;7.10;5.20;;;18.40;99.90;;;;;;5025959;28;20507;-81
2022/07/13 02:18:14;;;;;;;5.03;4.27;;;18.40;99.90;;;;;;5032102;28;20453;-81
2022/07/13 02:20:41;;;;;;;5.87;4.80;;;18.40;99.90;;;;;;5026278;28;20836;-82
2022/07/13 02:23:07;;;;;;;11.00;4.70;;;18.30;99.90;;;;;;5026413;28;20444;-80
2022/07/13 02:25:35;;;;;;;6.40;4.50;;;18.20;99.90;;;;;;5027497;28;20442;-82
2022/07/13 02:28:01;;;;;;;6.20;4.70;;;18.20;99.90;;;;;;5026228;28;20827;-81
2022/07/13 02:30:28;;;;;;;6.43;4.80;;;18.20;99.90;;;;;;5027200;28;20465;-82
2022/07/13 02:32:57;;;;;;;7.67;4.70;;;18.10;99.90;;;;;;5026538;28;20482;-79
2022/07/13 02:35:23;;;;;;;5.10;4.60;;;18.10;99.90;;;;;;5024606;28;21004;-82
2022/07/13 02:37:50;;;;;;;8.90;6.50;;;18.10;99.90;;;;;;5025974;28;20444;-83
2022/07/13 02:40:17;;;;;;;5.30;4.50;;;18.10;99.90;;;;;;5027148;28;21028;-83
2022/07/13 02:42:44;;;;;;;8.30;4.73;;;18.20;99.90;;;;;;5042957;28;20476;-80
2022/07/13 02:45:16;;;;;;;5.40;3.93;;;18.20;99.90;;;;;;5047326;28;20521;-90
2022/07/13 02:47:42;;;;;;;7.10;4.47;;;18.20;99.90;;;;;;5042113;28;20453;-86
2022/07/13 02:50:11;;;;;;;5.40;3.70;;;18.20;99.90;;;;;;5041037;28;20990;-86
2022/07/13 02:52:38;;;;;;;6.33;5.60;;;18.20;99.90;;;;;;5033540;28;20474;-86
2022/07/13 02:55:05;;;;;;;4.73;4.30;;;18.20;99.90;;;;;;5028318;28;20458;-87
2022/07/13 02:57:32;;;;;;;6.20;4.40;;;18.20;99.90;;;;;;5028515;28;20470;-86
2022/07/13 02:59:59;;;;;;;6.33;4.57;;;18.20;99.90;;;;;;5030404;28;20469;-86
2022/07/13 03:02:26;;;;;;;5.80;4.57;;;18.20;99.90;;;;;;5027724;28;20507;-86
2022/07/13 03:04:52;;;;;;;8.77;4.17;;;18.20;99.90;;;;;;5029328;28;20437;-87
2022/07/13 03:07:20;;;;;;;5.20;4.47;;;18.20;99.90;;;;;;5034864;28;20449;-86
2022/07/13 03:09:47;;;;;;;11.17;4.57;;;18.10;99.90;;;;;;5040835;28;20465;-85
2022/07/13 03:12:14;;;;;;;4.20;3.63;;;18.20;99.90;;;;;;5036971;28;20517;-86
2022/07/13 03:14:40;;;;;;;6.43;4.77;;;18.20;99.90;;;;;;5031271;28;20473;-87
2022/07/13 03:17:07;;;;;;;5.40;4.57;;;18.10;99.90;;;;;;5035458;28;20446;-87
2022/07/13 03:19:34;;;;;;;7.30;4.57;;;18.10;99.90;;;;;;5038531;28;20461;-85
2022/07/13 03:22:03;;;;;;;6.10;4.23;;;18.00;99.90;;;;;;5036346;28;20442;-85
2022/07/13 03:24:31;;;;;;;4.50;3.87;;;17.90;99.90;;;;;;5037788;28;20431;-85
2022/07/13 03:26:58;;;;;;;4.40;4.00;;;17.90;99.90;;;;;;5039662;28;20952;-85
2022/07/13 03:29:25;;;;;;;6.50;4.60;;;17.80;99.90;;;;;;5034913;28;20582;-85
2022/07/13 03:31:51;;;;;;;5.40;3.57;;;17.70;99.90;;;;;;5030959;28;20438;-85
2022/07/13 03:34:18;;;;;;;9.07;4.70;;;17.70;99.90;;;;;;5031403;28;20496;-85
2022/07/13 03:36:45;;;;;;;8.13;4.40;;;17.70;99.90;;;;;;5035338;28;20431;-86
2022/07/13 03:39:12;;;;;;;8.33;4.23;;;17.80;99.90;;;;;;5029013;28;20458;-85
2022/07/13 03:41:40;;;;;;;6.70;4.47;;;17.80;99.90;;;;;;5030651;28;20435;-86
2022/07/13 03:44:07;;;;;;;7.00;4.30;;;17.80;99.90;;;;;;5029623;28;20443;-85
2022/07/13 03:46:34;;;;;;;5.80;4.43;;;17.80;99.90;;;;;;5033961;28;20448;-85
2022/07/13 03:49:00;;;;;;;5.90;4.30;;;17.80;99.90;;;;;;5039723;28;20445;-85
2022/07/13 03:51:27;;;;;;;6.63;4.77;;;17.70;99.90;;;;;;5029389;28;20438;-85
2022/07/13 03:53:54;;;;;;;6.47;4.90;;;17.70;99.90;;;;;;5031162;28;20477;-85
2022/07/13 03:56:20;;;;;;;7.57;4.63;;;17.70;99.90;;;;;;5032118;28;20445;-85
2022/07/13 03:58:48;;;;;;;6.67;5.97;;;17.60;99.90;;;;;;5031254;28;21115;-85
2022/07/13 04:01:15;;;;;;;5.53;4.70;;;17.50;99.90;;;;;;5029036;28;20445;-85
2022/07/13 04:03:42;;;;;;;5.63;4.33;;;17.50;99.90;;;;;;5030593;28;20435;-85
2022/07/13 04:06:08;;;;;;;12.20;4.43;;;17.50;99.90;;;;;;5033460;28;20442;-85
2022/07/13 04:08:35;;;;;;;8.20;4.60;;;17.50;99.90;;;;;;5031181;28;20529;-85
2022/07/13 04:11:02;;;;;;;6.53;4.10;;;17.50;99.90;;;;;;5032778;28;20457;-85
2022/07/13 04:13:29;;;;;;;4.13;3.70;;;17.50;99.90;;;;;;5057312;28;20536;-86
2022/07/13 04:15:57;;;;;;;6.10;4.80;;;17.60;99.90;;;;;;5055234;28;20422;-87
2022/07/13 04:18:24;;;;;;;6.63;4.10;;;17.50;99.90;;;;;;5038683;28;21117;-85
2022/07/13 04:20:50;;;;;;;4.50;3.77;;;17.50;99.90;;;;;;5029783;28;20465;-85
2022/07/13 04:23:17;;;;;;;8.20;4.37;;;17.40;99.90;;;;;;5030006;28;20438;-85
2022/07/13 04:25:45;;;;;;;5.80;4.10;;;17.40;99.90;;;;;;5027302;28;20438;-85
2022/07/13 04:28:11;;;;;;;5.40;4.90;;;17.50;99.90;;;;;;5028491;28;20499;-85
2022/07/13 04:30:38;;;;;;;7.73;5.37;;;17.40;99.90;;;;;;5031251;28;20832;-84
2022/07/13 04:33:06;;;;;;;6.10;4.90;;;17.40;99.90;;;;;;5028642;28;20474;-85
2022/07/13 04:35:33;;;;;;;7.30;4.73;;;17.40;99.90;;;;;;5027755;28;20442;-86
2022/07/13 04:38:00;;;;;;;8.87;4.77;;;17.40;99.90;;;;;;5027031;28;20453;-86
2022/07/13 04:40:26;;;;;;;5.83;4.93;;;17.50;99.90;;;;;;5030068;28;21098;-85
2022/07/13 04:42:53;;;;;;;7.47;5.20;;;17.50;99.90;;;;;;5030966;28;20447;-84
2022/07/13 04:45:20;;;;;;;5.57;4.60;;;17.50;99.90;;;;;;5026429;28;20962;-85
2022/07/13 04:47:46;;;;;;;6.90;4.90;;;17.50;99.90;;;;;;5028746;28;20506;-84
2022/07/13 04:50:14;;;;;;;7.60;5.00;;;17.50;99.90;;;;;;5026648;28;20469;-84
2022/07/13 04:52:41;;;;;;;6.47;4.00;;;17.60;99.90;;;;;;5025732;28;20443;-85
2022/07/13 04:55:09;;;;;;;7.20;4.20;;;17.70;99.90;;;;;;5031686;28;20445;-84
2022/07/13 04:57:36;;;;;;;6.23;3.80;;;17.70;99.90;;;;;;5042950;28;20474;-85
2022/07/13 05:00:03;;;;;;;7.33;3.70;;;17.80;99.90;;;;;;5041254;28;20474;-85
2022/07/13 05:02:30;;;;;;;7.00;4.37;;;17.80;99.90;;;;;;5040340;22;20494;-86
2022/07/13 05:04:57;;;;;;;5.03;2.80;;;17.90;99.90;;;;;;5023130;28;20438;-87
2022/07/13 05:07:25;;;;;;;5.07;3.47;;;17.90;99.90;;;;;;5014223;28;20489;-87
2022/07/13 05:09:51;;;;;;;4.30;3.17;;;18.00;99.90;;;;;;5019899;28;20538;-87
2022/07/13 05:12:18;;;;;;;4.13;2.40;;;18.10;99.90;;;;;;5036770;28;20443;-86
2022/07/13 05:14:45;;;;;;;3.80;2.80;;;18.10;99.90;;;;;;5018865;28;20485;-86
2022/07/13 05:17:11;;;;;;;4.70;3.73;;;18.20;99.90;;;;;;5013186;28;20444;-86
2022/07/13 05:19:38;;;;;;;6.37;3.37;;;18.40;99.90;;;;;;5013732;28;20447;-86
2022/07/13 05:22:05;;;;;;;4.60;3.30;;;19.10;99.90;;;;;;5013085;28;20562;-87
2022/07/13 05:24:33;;;;;;;6.20;4.07;;;19.60;99.90;;;;;;5012856;28;20809;-87
2022/07/13 05:26:59;;;;;;;6.90;4.50;;;20.10;99.90;;;;;;5012861;28;20450;-87
2022/07/13 05:29:26;;;;;;;6.70;4.40;;;20.60;99.10;;;;;;5013606;28;20459;-87
2022/07/13 05:31:53;;;;;;;5.00;3.90;;;21.00;97.60;;;;;;5013632;28;21070;-87
2022/07/13 05:34:20;;;;;;;7.03;4.07;;;21.80;96.00;;;;;;5012517;28;20505;-86
2022/07/13 05:36:46;;;;;;;6.50;3.50;;;22.50;93.60;;;;;;5012473;28;20450;-87
2022/07/13 05:39:13;;;;;;;3.40;3.10;;;23.00;91.70;;;;;;5013253;28;20939;-87
2022/07/13 05:41:41;;;;;;;3.40;2.57;;;23.30;90.00;;;;;;5013177;28;20478;-87
2022/07/13 05:44:08;;;;;;;3.80;2.80;;;23.70;87.50;;;;;;5013748;28;20458;-87
2022/07/13 05:46:34;;;;;;;5.87;3.43;;;24.30;84.60;;;;;;5020345;28;20438;-86
2022/07/13 05:49:01;;;;;;;3.57;2.03;;;24.70;81.90;;;;;;5034708;28;20447;-87
2022/07/13 05:51:28;;;;;;;11.70;2.70;;;25.10;78.70;;;;;;5016573;28;20457;-86
2022/07/13 05:53:55;;;;;;;4.43;2.80;;;24.90;78.00;;;;;;5015147;28;20482;-87
2022/07/13 05:56:21;;;;;;;4.43;2.40;;;24.80;77.50;;;;;;5015139;28;20577;-87
2022/07/13 05:58:49;;;;;;;3.13;2.50;;;24.50;77.70;;;;;;5015181;28;20525;-86
2022/07/13 06:01:16;;;;;;;2.37;2.10;;;24.00;78.20;;;;;;5013463;28;20820;-86
2022/07/13 06:03:43;;;;;;;3.63;2.70;;;23.50;80.00;;;;;;5013457;28;20469;-87
2022/07/13 06:06:09;;;;;;;5.00;2.07;;;23.30;80.90;;;;;;5044613;28;20448;-87
2022/07/13 06:08:37;;;;;;;6.10;2.40;;;23.50;81.30;;;;;;5053674;28;20449;-87
2022/07/13 06:11:04;;;;;;;7.20;3.17;;;23.90;80.20;;;;;;5034860;28;20453;-87
2022/07/13 06:13:31;;;;;;;6.93;2.40;;;24.00;79.50;;;;;;5035503;28;20481;-87
2022/07/13 06:15:59;;;;;;;6.83;2.90;;;23.80;80.00;;;;;;5042500;28;20446;-87
2022/07/13 06:18:26;;;;;;;4.27;3.40;;;23.40;81.00;;;;;;5034598;28;20459;-86
2022/07/13 06:20:53;;;;;;;7.23;2.87;;;22.70;84.00;;;;;;5033761;28;20461;-86
2022/07/13 06:23:21;;;;;;;4.80;2.97;;;22.40;85.30;;;;;;5034288;28;20457;-86
2022/07/13 06:25:48;;;;;;;3.00;2.70;;;22.30;86.40;;;;;;5036295;28;20453;-86
2022/07/13 06:28:15;;;;;;;5.17;3.47;;;22.20;86.80;;;;;;5041350;28;20446;-86
2022/07/13 06:30:42;;;;;;;9.33;3.30;;;22.00;88.50;;;;;;5036216;28;20457;-87
2022/07/13 06:33:10;;;;;;;9.80;5.50;;;22.20;88.10;;;;;;5033840;28;20466;-87
2022/07/13 06:35:37;;;;;;;10.13;4.13;;;22.20;87.60;;;;;;5034344;28;20485;-87
2022/07/13 06:38:06;;;;;;;9.23;3.70;;;22.30;87.90;;;;;;5034383;28;20446;-87
2022/07/13 06:40:33;;;;;;;5.80;3.97;;;22.40;87.60;;;;;;5036865;28;20456;-88
2022/07/13 06:43:00;;;;;;;5.20;3.50;;;22.60;87.70;;;;;;5035691;28;20480;-87
2022/07/13 06:45:29;;;;;;;4.90;3.47;;;22.60;87.80;;;;;;5036325;28;20441;-87
2022/07/13 06:47:56;;;;;;;4.63;3.60;;;22.60;88.30;;;;;;5037238;28;20894;-87
2022/07/13 06:50:25;;;;;;;6.43;4.03;;;22.50;88.00;;;;;;5037634;28;20465;-87
2022/07/13 06:52:52;;;;;;;5.33;3.90;;;22.60;88.30;;;;;;5038959;28;20852;-87
2022/07/13 06:55:19;;;;;;;9.10;3.43;;;22.80;87.90;;;;;;5037951;28;20492;-87
2022/07/13 06:57:46;;;;;;;5.87;3.70;;;23.00;86.80;;;;;;5037295;28;20453;-88
2022/07/13 07:00:16;;;;;;;5.27;3.40;;;23.30;86.20;;;;;;5037743;28;20450;-87
2022/07/13 07:02:42;;;;;;;6.17;4.10;;;24.00;84.40;;;;;;5038432;28;20505;-87
2022/07/13 07:05:12;;;;;;;6.53;3.97;;;24.60;82.30;;;;;;5047511;28;20440;-88
2022/07/13 07:07:42;;;;;;;5.30;2.97;;;26.00;78.50;;;;;;5057315;28;20445;-86
2022/07/13 07:10:10;;;;;;;5.20;3.10;;;27.20;72.10;;;;;;5040735;28;20480;-86
2022/07/13 07:12:37;;;;;;;4.33;2.53;;;27.60;69.80;;;;;;5037239;28;20477;-86
2022/07/13 07:15:04;;;;;;;4.60;2.90;;;28.90;66.10;;;;;;5036593;28;20481;-87
2022/07/13 07:17:31;;;;;;;7.73;3.07;;;30.00;61.80;;;;;;5042994;28;20456;-87
2022/07/13 07:19:59;;;;;;;6.40;2.97;;;31.10;58.50;;;;;;5037427;28;20448;-87
2022/07/13 07:22:26;;;;;;;4.57;3.10;;;31.00;55.90;;;;;;5038072;28;20467;-86
2022/07/13 07:24:56;;;;;;;4.27;2.90;;;31.20;55.10;;;;;;5036541;28;20438;-86
2022/07/13 07:27:23;;;;;;;3.30;2.13;;;31.30;54.70;;;;;;5037558;28;20457;-87
2022/07/13 07:29:50;;;;;;;3.50;2.10;;;31.80;53.10;;;;;;5038578;28;20461;-87
2022/07/13 07:32:17;;;;;;;5.10;2.30;;;31.40;52.30;;;;;;5037246;28;20476;-86
2022/07/13 07:34:43;;;;;;;7.80;2.57;;;31.80;52.30;;;;;;5035798;28;20512;-87
2022/07/13 07:37:10;;;;;;;4.70;2.33;;;32.40;50.80;;;;;;5041794;28;20439;-87
2022/07/13 07:39:37;;;;;;;3.70;2.80;;;32.70;50.10;;;;;;5057627;28;20442;-86
2022/07/13 07:42:06;;;;;;;4.27;2.70;;;33.50;48.70;;;;;;5050625;28;20842;-86
2022/07/13 07:44:32;;;;;;;3.67;2.27;;;33.70;47.70;;;;;;5039109;28;20444;-87
2022/07/13 07:47:01;;;;;;;5.13;2.33;;;34.20;47.10;;;;;;5038770;28;20822;-88
2022/07/13 07:49:27;;;;;;;5.27;3.13;;;35.20;46.10;;;;;;5038344;28;20456;-86
2022/07/13 07:51:54;;;;;;;5.07;2.33;;;35.50;43.50;;;;;;5037323;28;20789;-87
2022/07/13 07:54:21;;;;;;;4.90;2.80;;;34.70;44.70;;;;;;5038167;28;20499;-87
2022/07/13 07:56:48;;;;;;;5.83;2.43;;;35.20;44.40;;;;;;5051314;28;20444;-86
2022/07/13 07:59:17;;;;;;;5.37;1.93;;;36.30;42.90;;;;;;5058296;28;20444;-86
2022/07/13 08:01:44;;;;;;;6.20;2.23;;;36.40;41.30;;;;;;5058283;28;20464;-86
2022/07/13 08:04:11;;;;;;;3.77;2.30;;;36.70;41.80;;;;;;5042166;28;20440;-87
2022/07/13 08:06:39;;;;;;;4.43;1.87;;;37.00;40.90;;;;;;5039966;28;20443;-86
2022/07/13 08:09:06;;;;;;;4.40;1.80;;;36.40;40.00;;;;;;5037942;28;20910;-87
2022/07/13 08:11:33;;;;;;;4.37;1.80;;;36.20;41.00;;;;;;5037938;28;20472;-87
2022/07/13 08:13:59;;;;;;;5.37;1.90;;;34.70;42.80;;;;;;5054276;28;20443;-85
2022/07/13 08:16:28;;;;;;;5.87;1.77;;;34.50;43.00;;;;;;5038270;28;20437;-85
2022/07/13 08:18:54;;;;;;;2.23;1.70;;;34.60;43.70;;;;;;5030833;28;20424;-85
2022/07/13 08:21:22;;;;;;;3.63;1.80;;;33.80;43.90;;;;;;5036904;28;20444;-85
2022/07/13 08:23:54;;;;;;;3.90;1.90;;;32.70;45.50;;;;;;5037054;28;20475;-86
2022/07/13 08:26:22;;;;;;;3.13;1.70;;;32.60;46.30;;;;;;5036344;28;20447;-85
2022/07/13 08:28:49;;;;;;;3.93;1.83;;;32.90;45.90;;;;;;5031083;28;20444;-86
2022/07/13 08:31:17;;;;;;;5.30;1.90;;;33.40;45.30;;;;;;5022454;28;20496;-86
2022/07/13 08:39:14;;;;;;;6.93;2.70;;;32.50;45.20;;;;;;5015986;28;20417;-86
2022/07/13 08:41:41;;;;;;;4.80;2.67;;;32.40;45.90;;;;;;5018594;28;20460;-87
2022/07/13 08:44:07;;;;;;;6.20;2.00;;;32.10;47.00;;;;;;5013697;28;20443;-87
2022/07/13 08:46:34;;;;;;;3.60;1.90;;;32.20;46.80;;;;;;5013607;28;20461;-87
2022/07/13 08:49:03;;;;;;;5.30;2.40;;;32.80;46.20;;;;;;5015753;28;20440;-85
2022/07/13 08:51:32;;;;;;;4.53;1.93;;;32.80;45.90;;;;;;5015775;28;20468;-87
2022/07/13 08:54:00;;;;;;;2.20;1.67;;;33.60;45.30;;;;;;5015587;28;20473;-87
2022/07/13 08:56:27;;;;;;;4.00;1.47;;;33.00;43.50;;;;;;5017329;28;20957;-88
2022/07/13 08:58:54;;;;;;;4.60;1.70;;;33.50;43.90;;;;;;5015403;28;20453;-88
2022/07/13 09:01:21;;;;;;;3.63;2.20;;;33.70;43.60;;;;;;5015796;28;20467;-88
2022/07/13 09:03:48;;;;;;;3.20;1.67;;;35.00;42.90;;;;;;5026763;28;20457;-89
2022/07/13 09:06:44;;;;;;;3.90;2.00;;;35.00;41.60;;;;;;5034402;28;20432;-88
2022/07/13 09:09:26;;;;;;;4.00;2.00;;;34.40;41.60;;;;;;5016572;28;20434;-87
2022/07/13 09:11:53;;;;;;;3.93;1.83;;;34.60;41.70;;;;;;5014355;28;20483;-88
2022/07/13 09:14:26;;;;;;;3.57;2.10;;;34.80;41.90;;;;;;5015377;28;20452;-87
2022/07/13 09:16:53;;;;;;;5.27;2.03;;;35.30;40.70;;;;;;5014953;28;20448;-88
2022/07/13 09:19:25;;;;;;;2.77;1.60;;;35.80;39.60;;;;;;5015001;28;20461;-89
2022/07/13 09:22:14;;;;;;;3.87;1.77;;;36.20;39.30;;;;;;5016675;28;20453;-89
2022/07/13 09:24:45;;;;;;;4.27;2.10;;;36.80;38.40;;;;;;5015387;28;20453;-89
2022/07/13 09:27:13;;;;;;;4.93;1.57;;;37.80;37.60;;;;;;5014623;28;20438;-88
2022/07/13 09:29:40;;;;;;;3.33;1.80;;;39.20;34.50;;;;;;5017646;28;20546;-89
2022/07/13 09:32:10;;;;;;;2.90;1.30;;;39.90;33.20;;;;;;5017909;28;20479;-90
2022/07/13 09:34:50;;;;;;;1.77;1.50;;;40.60;32.00;;;;;;5018193;28;20485;-88
2022/07/13 09:37:23;;;;;;;6.40;1.73;;;41.70;31.40;;;;;;5018207;28;20440;-90
2022/07/13 09:40:05;;;;;;;5.47;1.90;;;42.70;30.10;;;;;;5030113;28;20453;-90
2022/07/13 09:42:36;;;;;;;2.20;1.23;;;42.60;29.40;;;;;;5016428;28;20605;-89
2022/07/13 09:47:51;;;;;;;4.13;1.80;;;41.00;29.70;;;;;;5015598;28;20446;-89
2022/07/13 09:50:18;;;;;;;2.00;1.57;;;41.10;30.00;;;;;;5016109;28;20466;-89
2022/07/13 09:52:47;;;;;;;1.70;1.50;;;40.50;29.70;;;;;;5016215;28;20519;-89
2022/07/13 09:55:21;;;;;;;1.50;1.10;;;40.30;28.50;;;;;;5014859;28;20482;-88
2022/07/13 09:57:49;;;;;;;1.97;1.20;;;40.60;29.50;;;;;;5016715;28;20521;-88
2022/07/13 10:00:20;;;;;;;1.83;1.10;;;41.10;28.10;;;;;;5015260;28;20497;-85
2022/07/13 10:02:48;;;;;;;1.70;1.10;;;41.80;26.70;;;;;;5014282;28;21015;-86
2022/07/13 10:05:17;;;;;;;2.50;1.30;;;42.30;26.50;;;;;;5012444;28;20475;-86
2022/07/13 10:07:44;;;;;;;1.43;1.13;;;42.20;27.10;;;;;;5014351;28;20501;-84
2022/07/13 10:10:15;;;;;;;2.53;1.50;;;42.90;26.30;;;;;;5013406;28;20529;-84
2022/07/13 10:12:42;;;;;;;3.63;1.70;;;43.40;26.50;;;;;;5015171;28;20448;-85
2022/07/13 10:15:10;;;;;;;1.97;1.57;;;44.10;25.50;;;;;;5014206;28;20445;-84
2022/07/13 10:17:38;;;;;;;2.47;1.40;;;43.70;26.10;;;;;;5015591;28;20443;-84
2022/07/13 10:20:10;;;;;;;1.70;1.10;;;42.80;25.50;;;;;;5016188;28;20834;-85
2022/07/13 10:22:40;;;;;;;4.57;1.10;;;42.00;25.60;;;;;;5018714;28;20470;-85
2022/07/13 10:25:08;;;;;;;2.60;1.23;;;40.60;25.40;;;;;;5019510;28;20509;-85
2022/07/13 10:27:37;;;;;;;1.43;0.80;;;42.10;25.50;;;;;;5017712;28;20441;-86
2022/07/13 10:30:07;;;;;;;1.30;1.10;;;43.00;24.80;;;;;;5015671;28;20518;-86
2022/07/13 10:32:36;;;;;;;2.03;1.00;;;42.90;23.40;;;;;;5016276;28;20513;-85
2022/07/13 10:35:05;;;;;;;2.60;1.00;;;43.20;22.60;;;;;;5019378;28;20529;-86
2022/07/13 10:38:05;;;;;;;1.20;0.70;;;44.10;21.30;;;;;;5019175;28;20505;-85
2022/07/13 10:40:32;;;;;;;1.33;0.70;;;42.80;17.40;;;;;;5021125;28;20525;-85
2022/07/13 10:43:20;;;;;;;4.80;1.17;;;43.10;20.20;;;;;;5016936;28;20467;-85
2022/07/13 10:45:55;;;;;;;1.23;0.90;;;43.00;23.10;;;;;;5018528;28;20585;-86
2022/07/13 10:48:42;;;;;;;4.90;1.30;;;43.00;23.90;;;;;;5023723;28;20461;-84
2022/07/13 10:51:25;;;;;;;1.77;0.93;;;43.10;23.20;;;;;;5020558;28;20458;-84
2022/07/13 10:54:05;;;;;;;1.83;1.20;;;43.10;22.70;;;;;;5020713;28;20453;-84
2022/07/13 10:56:34;;;;;;;4.33;1.50;;;43.20;23.00;;;;;;5025679;28;21033;-83
2022/07/13 10:59:02;;;;;;;1.70;1.23;;;44.30;22.70;;;;;;5040697;28;20434;-84
2022/07/13 11:01:49;;;;;;;1.50;1.23;;;44.70;21.90;;;;;;5035105;28;20664;-84
2022/07/13 11:04:41;;;;;;;1.60;1.33;;;43.80;22.80;;;;;;5017081;28;20438;-83
2022/07/13 11:07:09;;;;;;;2.20;1.20;;;43.10;23.20;;;;;;5014273;28;20446;-84
2022/07/13 11:09:38;;;;;;;2.30;1.40;;;42.30;22.80;;;;;;5020387;28;20874;-83
2022/07/13 11:12:21;;;;;;;3.60;1.30;;;41.80;22.80;;;;;;5030512;28;20470;-83
2022/07/13 11:14:50;;;;;;;11.93;2.23;;;42.40;23.70;;;;;;5021027;28;20447;-83
2022/07/13 11:17:19;;;;;;;5.53;1.40;;;42.20;23.40;;;;;;5023342;28;20431;-83
2022/07/13 11:19:56;;;;;;;8.37;1.30;;;41.70;22.20;;;;;;5017905;28;20439;-83
2022/07/13 11:22:24;;;;;;;2.53;0.80;;;41.20;23.10;;;;;;5029711;28;20830;-83
2022/07/13 11:25:14;;;;;;;2.70;1.07;;;41.90;22.30;;;;;;5015277;28;20439;-87
2022/07/13 11:28:13;;;;;;;2.17;1.27;;;41.20;22.50;;;;;;5024364;28;20521;-89
2022/07/13 11:30:48;;;;;;;1.90;0.87;;;41.60;22.50;;;;;;5013914;28;20458;-88
2022/07/13 11:33:18;;;;;;;2.13;0.87;;;42.60;22.50;;;;;;5015573;28;20473;-87
2022/07/13 11:35:47;;;;;;;2.60;1.20;;;42.20;21.50;;;;;;5016544;28;20435;-88
2022/07/13 11:38:16;;;;;;;2.67;1.10;;;43.20;21.10;;;;;;5025950;28;20444;-89
2022/07/13 11:40:44;;;;;;;2.80;1.10;;;43.60;20.50;;;;;;5030845;28;20451;-88
2022/07/13 11:43:12;;;;;;;1.30;1.00;;;44.80;20.20;;;;;;5016009;28;20466;-88
2022/07/13 11:45:42;;;;;;;3.43;1.00;;;45.70;19.50;;;;;;5016754;28;20509;-88
2022/07/13 11:48:12;;;;;;;1.33;0.70;;;46.20;18.20;;;;;;5011947;28;20487;-88
2022/07/13 11:50:47;;;;;;;2.00;0.97;;;47.00;17.30;;;;;;5014794;28;20466;-87
2022/07/13 11:53:23;;;;;;;1.80;1.17;;;46.40;18.50;;;;;;5015819;28;20459;-89
2022/07/13 11:55:50;;;;;;;1.93;1.13;;;46.80;17.80;;;;;;5010847;28;20530;-89
2022/07/13 11:58:27;;;;;;;1.13;0.80;;;46.70;17.60;;;;;;5013248;28;20452;-91
2022/07/13 12:00:55;;;;;;;2.30;1.10;;;45.90;17.80;;;;;;5011701;28;20435;-90
2022/07/13 12:03:40;;;;;;;2.23;0.80;;;46.90;17.80;;;;;;5013614;28;20447;-91
2022/07/13 12:06:10;;;;;;;1.23;0.90;;;46.10;18.00;;;;;;5012284;28;20489;-89
2022/07/13 12:08:39;;;;;;;3.73;0.87;;;44.90;18.20;;;;;;5016385;28;20980;-90
2022/07/13 12:11:13;;;;;;;1.07;0.50;;;44.20;18.40;;;;;;5018154;28;20841;-88
2022/07/13 12:13:41;;;;;;;2.00;0.80;;;43.00;18.10;;;;;;5015306;28;20446;-90
2022/07/13 12:16:11;;;;;;;1.00;0.67;;;42.90;18.00;;;;;;5014680;28;20451;-88
2022/07/13 12:18:58;;;;;;;2.30;1.00;;;42.30;18.40;;;;;;5014488;28;20451;-88
2022/07/13 12:21:29;;;;;;;2.27;0.80;;;41.80;19.80;;;;;;5021339;28;20474;-88
2022/07/13 12:23:58;;;;;;;1.37;0.80;;;41.50;18.70;;;;;;5023059;28;20454;-88
2022/07/13 12:26:29;;;;;;;3.40;3.10;;;40.70;18.40;;;;;;5014034;28;20510;-88
2022/07/13 12:28:56;;;;;;;1.27;0.83;;;40.20;19.20;;;;;;5013373;28;20462;-90
2022/07/13 12:31:24;;;;;;;3.87;0.80;;;40.50;19.60;;;;;;5013228;28;20471;-90
2022/07/13 12:33:52;;;;;;;1.20;0.80;;;40.00;19.70;;;;;;5014093;28;20443;-90
2022/07/13 12:36:22;;;;;;;1.93;0.90;;;40.40;20.40;;;;;;5012013;28;20450;-90
2022/07/13 12:39:02;;;;;;;3.10;1.20;;;41.40;19.90;;;;;;5012476;28;20454;-90
2022/07/13 12:41:32;;;;;;;1.47;0.83;;;41.50;19.70;;;;;;5007095;28;20455;-90
2022/07/13 12:44:00;;;;;;;3.70;0.90;;;41.40;19.30;;;;;;5009305;28;20447;-90
2022/07/13 12:46:45;;;;;;;1.20;0.80;;;41.70;19.30;;;;;;5012114;28;21022;-90
2022/07/13 12:49:12;;;;;;;1.83;1.07;;;42.10;19.40;;;;;;5011672;28;20497;-90
2022/07/13 12:51:52;;;;;;;1.53;1.00;;;43.00;19.50;;;;;;5073366;23;20491;-90
2022/07/13 12:54:40;;;;;;;1.30;0.80;;;44.00;18.30;;;;;;5046874;28;20429;-89
2022/07/13 12:57:10;;;;;;;2.37;1.00;;;42.80;19.00;;;;;;5050272;28;20442;-88
2022/07/13 12:59:38;;;;;;;3.50;0.73;;;42.00;20.10;;;;;;5051189;28;20434;-89
2022/07/13 13:02:06;;;;;;;1.37;0.87;;;40.90;20.40;;;;;;5050044;28;20473;-89